sensor_id;sensor_type;location;lat;lon;timestamp;pressure;altitude;pressure_sealevel;temperature;humidity
56174;BME280;42058;52.308;20.924;2022-12-17T00:01:31;100770.78;;;-2.71;100.00
56174;BME280;42058;52.308;20.924;2022-12-17T00:04:16;100765.16;;;-2.72;100.00
56174;BME280;42058;52.308;20.924;2022-12-17T00:07:00;100772.39;;;-2.75;100.00
56174;BME280;42058;52.308;20.924;2022-12-17T00:09:45;100782.27;;;-2.74;100.00
56174;BME280;42058;52.308;20.924;2022-12-17T00:12:30;100776.25;;;-2.75;100.00
56174;BME280;42058;52.308;20.924;2022-12-17T00:15:14;100775.83;;;-2.74;100.00
56174;BME280;42058;52.308;20.924;2022-12-17T00:18:05;100768.94;;;-2.75;100.00
56174;BME280;42058;52.308;20.924;2022-12-17T00:20:52;100775.77;;;-2.76;100.00
56174;BME280;42058;52.308;20.924;2022-12-17T00:23:37;100777.48;;;-2.76;100.00
56174;BME280;42058;52.308;20.924;2022-12-17T00:26:22;100779.25;;;-2.75;100.00
56174;BME280;42058;52.308;20.924;2022-12-17T00:29:07;100784.78;;;-2.76;100.00
56174;BME280;42058;52.308;20.924;2022-12-17T00:31:52;100779.25;;;-2.75;100.00
56174;BME280;42058;52.308;20.924;2022-12-17T00:34:37;100780.53;;;-2.75;100.00
56174;BME280;42058;52.308;20.924;2022-12-17T00:37:21;100777.84;;;-2.78;100.00
56174;BME280;42058;52.308;20.924;2022-12-17T00:40:07;100783.00;;;-2.78;100.00
56174;BME280;42058;52.308;20.924;2022-12-17T00:45:47;100795.43;;;-2.79;100.00
56174;BME280;42058;52.308;20.924;2022-12-17T00:48:32;100810.88;;;-2.79;100.00
56174;BME280;42058;52.308;20.924;2022-12-17T00:51:17;100810.88;;;-2.79;100.00
56174;BME280;42058;52.308;20.924;2022-12-17T00:54:02;100814.27;;;-2.80;100.00
56174;BME280;42058;52.308;20.924;2022-12-17T00:56:47;100816.03;;;-2.79;100.00
56174;BME280;42058;52.308;20.924;2022-12-17T00:59:33;100820.66;;;-2.82;100.00
56174;BME280;42058;52.308;20.924;2022-12-17T01:02:17;100819.73;;;-2.84;100.00
56174;BME280;42058;52.308;20.924;2022-12-17T01:05:02;100821.07;;;-2.82;100.00
56174;BME280;42058;52.308;20.924;2022-12-17T01:07:48;100825.69;;;-2.85;100.00
56174;BME280;42058;52.308;20.924;2022-12-17T01:10:32;100827.81;;;-2.86;100.00
56174;BME280;42058;52.308;20.924;2022-12-17T01:13:18;100822.72;;;-2.84;100.00
56174;BME280;42058;52.308;20.924;2022-12-17T01:16:08;100821.02;;;-2.84;100.00
56174;BME280;42058;52.308;20.924;2022-12-17T01:18:55;100821.02;;;-2.84;100.00
56174;BME280;42058;52.308;20.924;2022-12-17T01:21:40;100830.45;;;-2.84;100.00
56174;BME280;42058;52.308;20.924;2022-12-17T01:24:25;100833.89;;;-2.84;100.00
56174;BME280;42058;52.308;20.924;2022-12-17T01:27:09;100836.89;;;-2.84;100.00
56174;BME280;42058;52.308;20.924;2022-12-17T01:29:55;100829.66;;;-2.82;100.00
56174;BME280;42058;52.308;20.924;2022-12-17T01:32:40;100819.78;;;-2.82;100.00
56174;BME280;42058;52.308;20.924;2022-12-17T01:35:25;100819.25;;;-2.85;100.00
56174;BME280;42058;52.308;20.924;2022-12-17T01:38:12;100820.03;;;-2.87;100.00
56174;BME280;42058;52.308;20.924;2022-12-17T01:40:58;100830.28;;;-2.89;100.00
56174;BME280;42058;52.308;20.924;2022-12-17T01:43:43;100841.42;;;-2.90;100.00
56174;BME280;42058;52.308;20.924;2022-12-17T01:46:32;100839.66;;;-2.91;100.00
56174;BME280;42058;52.308;20.924;2022-12-17T01:49:17;100837.02;;;-2.93;100.00
56174;BME280;42058;52.308;20.924;2022-12-17T01:52:04;100846.39;;;-2.95;100.00
56174;BME280;42058;52.308;20.924;2022-12-17T01:54:49;100848.10;;;-2.95;100.00
56174;BME280;42058;52.308;20.924;2022-12-17T01:57:34;100847.69;;;-2.95;100.00
56174;BME280;42058;52.308;20.924;2022-12-17T02:00:19;100848.16;;;-2.94;100.00
56174;BME280;42058;52.308;20.924;2022-12-17T02:03:04;100842.59;;;-2.93;100.00
56174;BME280;42058;52.308;20.924;2022-12-17T02:06:08;100848.61;;;-2.93;100.00
56174;BME280;42058;52.308;20.924;2022-12-17T02:08:48;100859.33;;;-2.93;100.00
56174;BME280;42058;52.308;20.924;2022-12-17T02:12:06;100869.62;;;-2.93;100.00
56174;BME280;42058;52.308;20.924;2022-12-17T02:14:56;100865.34;;;-2.93;100.00
56174;BME280;42058;52.308;20.924;2022-12-17T02:17:43;100862.33;;;-2.94;100.00
56174;BME280;42058;52.308;20.924;2022-12-17T02:20:42;100864.42;;;-2.95;100.00
56174;BME280;42058;52.308;20.924;2022-12-17T02:27:00;100855.89;;;-2.94;100.00
56174;BME280;42058;52.308;20.924;2022-12-17T02:29:49;100857.17;;;-2.94;100.00
56174;BME280;42058;52.308;20.924;2022-12-17T02:32:38;100861.03;;;-2.94;100.00
56174;BME280;42058;52.308;20.924;2022-12-17T02:35:28;100857.63;;;-2.93;100.00
56174;BME280;42058;52.308;20.924;2022-12-17T02:41:09;100845.35;;;-3.00;100.00
56174;BME280;42058;52.308;20.924;2022-12-17T02:43:56;100840.68;;;-2.99;100.00
56174;BME280;42058;52.308;20.924;2022-12-17T02:46:44;100844.48;;;-3.00;100.00
56174;BME280;42058;52.308;20.924;2022-12-17T02:49:30;100848.77;;;-3.01;100.00
56174;BME280;42058;52.308;20.924;2022-12-17T02:52:16;100850.05;;;-3.01;100.00
56174;BME280;42058;52.308;20.924;2022-12-17T02:55:02;100847.48;;;-3.01;100.00
56174;BME280;42058;52.308;20.924;2022-12-17T02:57:47;100840.20;;;-3.00;100.00
56174;BME280;42058;52.308;20.924;2022-12-17T03:00:31;100845.30;;;-3.01;100.00
56174;BME280;42058;52.308;20.924;2022-12-17T03:03:16;100836.64;;;-3.03;100.00
56174;BME280;42058;52.308;20.924;2022-12-17T03:06:00;100838.35;;;-3.04;100.00
56174;BME280;42058;52.308;20.924;2022-12-17T03:08:45;100844.31;;;-3.05;100.00
56174;BME280;42058;52.308;20.924;2022-12-17T03:11:29;100855.09;;;-3.04;100.00
56174;BME280;42058;52.308;20.924;2022-12-17T03:14:14;100852.94;;;-3.04;100.00
56174;BME280;42058;52.308;20.924;2022-12-17T03:16:59;100844.31;;;-3.05;100.00
56174;BME280;42058;52.308;20.924;2022-12-17T03:19:44;100845.95;;;-3.07;100.00
56174;BME280;42058;52.308;20.924;2022-12-17T03:22:29;100844.61;;;-3.09;100.00
56174;BME280;42058;52.308;20.924;2022-12-17T03:25:13;100850.90;;;-3.13;100.00
56174;BME280;42058;52.308;20.924;2022-12-17T03:28:04;100846.98;;;-3.15;100.00
56174;BME280;42058;52.308;20.924;2022-12-17T03:30:49;100854.20;;;-3.17;100.00
56174;BME280;42058;52.308;20.924;2022-12-17T03:33:34;100853.59;;;-3.21;100.00
56174;BME280;42058;52.308;20.924;2022-12-17T03:36:19;100861.38;;;-3.20;100.00
56174;BME280;42058;52.308;20.924;2022-12-17T03:39:03;100862.66;;;-3.20;100.00
56174;BME280;42058;52.308;20.924;2022-12-17T03:41:48;100862.66;;;-3.20;100.00
56174;BME280;42058;52.308;20.924;2022-12-17T03:44:33;100867.75;;;-3.21;100.00
56174;BME280;42058;52.308;20.924;2022-12-17T03:47:18;100872.45;;;-3.22;100.00
56174;BME280;42058;52.308;20.924;2022-12-17T03:50:03;100876.25;;;-3.24;100.00
56174;BME280;42058;52.308;20.924;2022-12-17T03:52:48;100866.77;;;-3.25;100.00
56174;BME280;42058;52.308;20.924;2022-12-17T03:55:33;100859.09;;;-3.23;100.00
56174;BME280;42058;52.308;20.924;2022-12-17T03:58:18;100862.16;;;-3.22;100.00
56174;BME280;42058;52.308;20.924;2022-12-17T04:01:02;100863.80;;;-3.24;100.00
56174;BME280;42058;52.308;20.924;2022-12-17T04:03:47;100869.00;;;-3.23;100.00
56174;BME280;42058;52.308;20.924;2022-12-17T04:06:31;100876.61;;;-3.26;100.00
56174;BME280;42058;52.308;20.924;2022-12-17T04:09:02;100874.33;;;-3.30;100.00
56174;BME280;42058;52.308;20.924;2022-12-17T04:11:47;100871.27;;;-3.31;100.00
56174;BME280;42058;52.308;20.924;2022-12-17T04:14:31;100865.62;;;-3.33;100.00
56174;BME280;42058;52.308;20.924;2022-12-17T04:17:16;100863.82;;;-3.36;100.00
56174;BME280;42058;52.308;20.924;2022-12-17T04:20:00;100863.22;;;-3.40;100.00
56174;BME280;42058;52.308;20.924;2022-12-17T04:22:44;100860.20;;;-3.41;100.00
56174;BME280;42058;52.308;20.924;2022-12-17T04:25:29;100862.23;;;-3.43;100.00
56174;BME280;42058;52.308;20.924;2022-12-17T04:28:14;100873.87;;;-3.42;100.00
56174;BME280;42058;52.308;20.924;2022-12-17T04:30:58;100879.50;;;-3.41;100.00
56174;BME280;42058;52.308;20.924;2022-12-17T04:33:43;100878.59;;;-3.41;100.00
56174;BME280;42058;52.308;20.924;2022-12-17T04:36:27;100891.08;;;-3.41;100.00
56174;BME280;42058;52.308;20.924;2022-12-17T04:39:11;100910.38;;;-3.41;100.00
56174;BME280;42058;52.308;20.924;2022-12-17T04:41:56;100916.80;;;-3.41;100.00
56174;BME280;42058;52.308;20.924;2022-12-17T04:44:40;100922.75;;;-3.42;100.00
56174;BME280;42058;52.308;20.924;2022-12-17T04:47:24;100932.24;;;-3.41;100.00
56174;BME280;42058;52.308;20.924;2022-12-17T04:50:09;100926.26;;;-3.40;100.00
56174;BME280;42058;52.308;20.924;2022-12-17T04:53:01;100930.59;;;-3.39;100.00
56174;BME280;42058;52.308;20.924;2022-12-17T04:55:47;100938.77;;;-3.38;100.00
56174;BME280;42058;52.308;20.924;2022-12-17T04:58:32;100945.55;;;-3.40;100.00
56174;BME280;42058;52.308;20.924;2022-12-17T05:01:20;100952.92;;;-3.38;100.00
56174;BME280;42058;52.308;20.924;2022-12-17T05:03:48;100961.93;;;-3.38;100.00
56174;BME280;42058;52.308;20.924;2022-12-17T05:06:33;100962.28;;;-3.40;100.00
56174;BME280;42058;52.308;20.924;2022-12-17T05:09:17;100973.06;;;-3.39;100.00
56174;BME280;42058;52.308;20.924;2022-12-17T05:12:02;100975.56;;;-3.40;100.00
56174;BME280;42058;52.308;20.924;2022-12-17T05:14:47;100980.23;;;-3.41;100.00
56174;BME280;42058;52.308;20.924;2022-12-17T05:17:31;100986.28;;;-3.41;100.00
56174;BME280;42058;52.308;20.924;2022-12-17T05:20:15;100993.16;;;-3.40;100.00
56174;BME280;42058;52.308;20.924;2022-12-17T05:23:07;100991.78;;;-3.43;100.00
56174;BME280;42058;52.308;20.924;2022-12-17T05:26:23;100998.20;;;-3.43;100.00
56174;BME280;42058;52.308;20.924;2022-12-17T05:29:06;101006.31;;;-3.43;100.00
56174;BME280;42058;52.308;20.924;2022-12-17T05:31:51;101008.08;;;-3.42;100.00
56174;BME280;42058;52.308;20.924;2022-12-17T05:34:36;101002.00;;;-3.44;100.00
56174;BME280;42058;52.308;20.924;2022-12-17T05:37:20;101000.59;;;-3.48;100.00
56174;BME280;42058;52.308;20.924;2022-12-17T05:40:06;100993.35;;;-3.46;100.00
56174;BME280;42058;52.308;20.924;2022-12-17T05:42:56;100999.72;;;-3.48;100.00
56174;BME280;42058;52.308;20.924;2022-12-17T05:45:43;100996.31;;;-3.47;100.00
56174;BME280;42058;52.308;20.924;2022-12-17T05:48:29;100994.57;;;-3.48;100.00
56174;BME280;42058;52.308;20.924;2022-12-17T05:51:13;100997.14;;;-3.48;100.00
56174;BME280;42058;52.308;20.924;2022-12-17T05:53:58;100994.92;;;-3.50;100.00
56174;BME280;42058;52.308;20.924;2022-12-17T05:56:42;100995.72;;;-3.51;100.00
56174;BME280;42058;52.308;20.924;2022-12-17T05:59:27;100987.08;;;-3.53;100.00
56174;BME280;42058;52.308;20.924;2022-12-17T06:02:11;100996.95;;;-3.53;100.00
56174;BME280;42058;52.308;20.924;2022-12-17T06:04:56;100993.37;;;-3.56;100.00
56174;BME280;42058;52.308;20.924;2022-12-17T06:07:41;100998.42;;;-3.59;100.00
56174;BME280;42058;52.308;20.924;2022-12-17T06:10:26;100997.52;;;-3.60;100.00
56174;BME280;42058;52.308;20.924;2022-12-17T06:13:11;100997.52;;;-3.60;100.00
56174;BME280;42058;52.308;20.924;2022-12-17T06:15:55;100999.70;;;-3.59;100.00
56174;BME280;42058;52.308;20.924;2022-12-17T06:18:40;100997.87;;;-3.62;100.00
56174;BME280;42058;52.308;20.924;2022-12-17T06:21:24;100997.48;;;-3.61;100.00
56174;BME280;42058;52.308;20.924;2022-12-17T06:24:10;101002.63;;;-3.61;100.00
56174;BME280;42058;52.308;20.924;2022-12-17T06:26:54;101003.78;;;-3.64;100.00
56174;BME280;42058;52.308;20.924;2022-12-17T06:29:39;101007.58;;;-3.66;100.00
56174;BME280;42058;52.308;20.924;2022-12-17T06:32:24;101016.05;;;-3.69;100.00
56174;BME280;42058;52.308;20.924;2022-12-17T06:35:08;101022.77;;;-3.72;100.00
56174;BME280;42058;52.308;20.924;2022-12-17T06:38:02;101035.56;;;-3.74;100.00
56174;BME280;42058;52.308;20.924;2022-12-17T06:40:43;101044.56;;;-3.74;100.00
56174;BME280;42058;52.308;20.924;2022-12-17T06:43:28;101052.62;;;-3.76;100.00
56174;BME280;42058;52.308;20.924;2022-12-17T06:46:12;101062.56;;;-3.74;100.00
56174;BME280;42058;52.308;20.924;2022-12-17T06:48:56;101061.28;;;-3.74;100.00
56174;BME280;42058;52.308;20.924;2022-12-17T06:51:41;101075.88;;;-3.73;100.00
56174;BME280;42058;52.308;20.924;2022-12-17T06:54:25;101084.53;;;-3.71;100.00
56174;BME280;42058;52.308;20.924;2022-12-17T06:57:09;101081.92;;;-3.72;100.00
56174;BME280;42058;52.308;20.924;2022-12-17T06:59:54;101075.08;;;-3.72;100.00
56174;BME280;42058;52.308;20.924;2022-12-17T07:02:38;101060.93;;;-3.72;100.00
56174;BME280;42058;52.308;20.924;2022-12-17T07:05:23;101063.95;;;-3.71;100.00
56174;BME280;42058;52.308;20.924;2022-12-17T07:08:07;101069.58;;;-3.70;100.00
56174;BME280;42058;52.308;20.924;2022-12-17T07:10:52;101091.45;;;-3.70;100.00
56174;BME280;42058;52.308;20.924;2022-12-17T07:13:36;101095.23;;;-3.71;100.00
56174;BME280;42058;52.308;20.924;2022-12-17T07:16:21;101087.09;;;-3.71;100.00
56174;BME280;42058;52.308;20.924;2022-12-17T07:19:05;101094.02;;;-3.70;100.00
56174;BME280;42058;52.308;20.924;2022-12-17T07:21:49;101090.95;;;-3.71;100.00
56174;BME280;42058;52.308;20.924;2022-12-17T07:24:35;101095.92;;;-3.75;100.00
56174;BME280;42058;52.308;20.924;2022-12-17T07:27:19;101099.72;;;-3.77;100.00
56174;BME280;42058;52.308;20.924;2022-12-17T07:30:05;101100.55;;;-3.78;100.00
56174;BME280;42058;52.308;20.924;2022-12-17T07:33:04;101100.48;;;-3.79;100.00
56174;BME280;42058;52.308;20.924;2022-12-17T07:35:54;101101.69;;;-3.81;100.00
56174;BME280;42058;52.308;20.924;2022-12-17T07:38:40;101104.61;;;-3.83;100.00
56174;BME280;42058;52.308;20.924;2022-12-17T07:41:25;101102.42;;;-3.83;100.00
56174;BME280;42058;52.308;20.924;2022-12-17T07:44:09;101106.24;;;-3.85;100.00
56174;BME280;42058;52.308;20.924;2022-12-17T07:46:54;101108.81;;;-3.85;100.00
56174;BME280;42058;52.308;20.924;2022-12-17T07:49:38;101115.63;;;-3.86;100.00
56174;BME280;42058;52.308;20.924;2022-12-17T07:52:22;101135.39;;;-3.84;100.00
56174;BME280;42058;52.308;20.924;2022-12-17T07:55:07;101133.17;;;-3.87;100.00
56174;BME280;42058;52.308;20.924;2022-12-17T07:58:02;101136.13;;;-3.87;100.00
56174;BME280;42058;52.308;20.924;2022-12-17T08:00:49;101148.45;;;-3.90;100.00
56174;BME280;42058;52.308;20.924;2022-12-17T08:03:33;101138.58;;;-3.90;100.00
56174;BME280;42058;52.308;20.924;2022-12-17T08:06:18;101132.50;;;-3.92;100.00
56174;BME280;42058;52.308;20.924;2022-12-17T08:09:03;101140.94;;;-3.95;100.00
56174;BME280;42058;52.308;20.924;2022-12-17T08:11:47;101146.42;;;-3.97;100.00
56174;BME280;42058;52.308;20.924;2022-12-17T08:14:32;101148.92;;;-3.98;100.00
56174;BME280;42058;52.308;20.924;2022-12-17T08:17:17;101141.21;;;-3.98;100.00
56174;BME280;42058;52.308;20.924;2022-12-17T08:20:00;101143.33;;;-3.99;100.00
56174;BME280;42058;52.308;20.924;2022-12-17T08:22:44;101142.84;;;-4.00;100.00
56174;BME280;42058;52.308;20.924;2022-12-17T08:25:29;101150.62;;;-3.99;100.00
56174;BME280;42058;52.308;20.924;2022-12-17T08:28:14;101151.04;;;-3.99;100.00
56174;BME280;42058;52.308;20.924;2022-12-17T08:30:58;101154.41;;;-4.00;100.00
56174;BME280;42058;52.308;20.924;2022-12-17T08:33:43;101161.17;;;-4.02;100.00
56174;BME280;42058;52.308;20.924;2022-12-17T08:36:27;101170.52;;;-4.04;100.00
56174;BME280;42058;52.308;20.924;2022-12-17T08:39:12;101168.36;;;-4.05;100.00
56174;BME280;42058;52.308;20.924;2022-12-17T08:41:56;101176.45;;;-4.06;100.00
56174;BME280;42058;52.308;20.924;2022-12-17T08:44:41;101176.45;;;-4.06;100.00
56174;BME280;42058;52.308;20.924;2022-12-17T08:47:25;101170.97;;;-4.03;100.00
56174;BME280;42058;52.308;20.924;2022-12-17T08:50:10;101176.07;;;-4.05;100.00
56174;BME280;42058;52.308;20.924;2022-12-17T08:52:58;101171.73;;;-4.06;100.00
56174;BME280;42058;52.308;20.924;2022-12-17T08:55:47;101179.97;;;-4.03;100.00
56174;BME280;42058;52.308;20.924;2022-12-17T08:58:34;101181.33;;;-4.02;100.00
56174;BME280;42058;52.308;20.924;2022-12-17T09:01:18;101184.31;;;-4.02;100.00
56174;BME280;42058;52.308;20.924;2022-12-17T09:04:03;101195.87;;;-4.02;100.00
56174;BME280;42058;52.308;20.924;2022-12-17T09:06:48;101200.68;;;-4.00;100.00
56174;BME280;42058;52.308;20.924;2022-12-17T09:09:32;101198.94;;;-4.01;100.00
56174;BME280;42058;52.308;20.924;2022-12-17T09:12:17;101215.31;;;-3.99;100.00
56174;BME280;42058;52.308;20.924;2022-12-17T09:15:01;101211.03;;;-3.99;100.00
56174;BME280;42058;52.308;20.924;2022-12-17T09:17:46;101206.69;;;-4.00;100.00
56174;BME280;42058;52.308;20.924;2022-12-17T09:20:30;101207.52;;;-4.01;100.00
56174;BME280;42058;52.308;20.924;2022-12-17T09:23:16;101209.61;;;-4.02;100.00
56174;BME280;42058;52.308;20.924;2022-12-17T09:26:01;101216.45;;;-4.02;100.00
56174;BME280;42058;52.308;20.924;2022-12-17T09:28:46;101220.30;;;-4.02;100.00
56174;BME280;42058;52.308;20.924;2022-12-17T09:31:31;101217.73;;;-4.02;100.00
56174;BME280;42058;52.308;20.924;2022-12-17T09:34:16;101222.53;;;-4.00;100.00
56174;BME280;42058;52.308;20.924;2022-12-17T09:37:02;101234.93;;;-4.01;100.00
56174;BME280;42058;52.308;20.924;2022-12-17T09:39:46;101233.23;;;-4.01;100.00
56174;BME280;42058;52.308;20.924;2022-12-17T09:42:40;101237.16;;;-3.99;100.00
56174;BME280;42058;52.308;20.924;2022-12-17T09:45:41;101235.53;;;-3.97;100.00
56174;BME280;42058;52.308;20.924;2022-12-17T09:51:47;101238.91;;;-3.98;100.00
56174;BME280;42058;52.308;20.924;2022-12-17T09:54:43;101236.75;;;-3.99;100.00
56174;BME280;42058;52.308;20.924;2022-12-17T09:57:31;101235.72;;;-4.02;100.00
56174;BME280;42058;52.308;20.924;2022-12-17T10:00:23;101237.50;;;-4.01;100.00
56174;BME280;42058;52.308;20.924;2022-12-17T10:03:11;101240.45;;;-4.02;100.00
56174;BME280;42058;52.308;20.924;2022-12-17T10:06:08;101243.78;;;-4.04;100.00
56174;BME280;42058;52.308;20.924;2022-12-17T10:08:58;101239.31;;;-4.09;100.00
56174;BME280;42058;52.308;20.924;2022-12-17T10:11:45;101238.14;;;-4.06;100.00
56174;BME280;42058;52.308;20.924;2022-12-17T10:14:30;101241.66;;;-4.03;100.00
56174;BME280;42058;52.308;20.924;2022-12-17T10:17:21;101240.86;;;-4.02;100.00
56174;BME280;42058;52.308;20.924;2022-12-17T10:20:21;101242.56;;;-4.03;100.00
56174;BME280;42058;52.308;20.924;2022-12-17T10:23:08;101241.20;;;-4.04;100.00
56174;BME280;42058;52.308;20.924;2022-12-17T10:25:55;101256.29;;;-4.02;100.00
56174;BME280;42058;52.308;20.924;2022-12-17T10:28:40;101267.06;;;-4.01;100.00
56174;BME280;42058;52.308;20.924;2022-12-17T10:31:28;101271.72;;;-4.02;100.00
56174;BME280;42058;52.308;20.924;2022-12-17T10:34:19;101274.28;;;-4.02;100.00
56174;BME280;42058;52.308;20.924;2022-12-17T10:37:04;101280.18;;;-4.05;100.00
56174;BME280;42058;52.308;20.924;2022-12-17T10:39:59;101282.27;;;-4.06;100.00
56174;BME280;42058;52.308;20.924;2022-12-17T10:42:45;101277.53;;;-4.07;100.00
56174;BME280;42058;52.308;20.924;2022-12-17T10:45:32;101276.86;;;-4.02;100.00
56174;BME280;42058;52.308;20.924;2022-12-17T10:48:26;101281.25;;;-4.00;100.00
56174;BME280;42058;52.308;20.924;2022-12-17T10:54:29;101280.19;;;-3.95;100.00
56174;BME280;42058;52.308;20.924;2022-12-17T10:57:30;101278.91;;;-3.95;100.00
56174;BME280;42058;52.308;20.924;2022-12-17T11:00:25;101289.34;;;-3.92;100.00
56174;BME280;42058;52.308;20.924;2022-12-17T11:03:27;101285.94;;;-3.91;100.00
56174;BME280;42058;52.308;20.924;2022-12-17T11:07:04;101292.78;;;-3.92;100.00
56174;BME280;42058;52.308;20.924;2022-12-17T11:09:57;101298.52;;;-3.97;100.00
56174;BME280;42058;52.308;20.924;2022-12-17T11:12:16;101298.94;;;-3.98;100.00
56174;BME280;42058;52.308;20.924;2022-12-17T11:18:21;101295.95;;;-3.97;100.00
56174;BME280;42058;52.308;20.924;2022-12-17T11:21:19;101294.74;;;-3.96;100.00
56174;BME280;42058;52.308;20.924;2022-12-17T11:24:06;101292.81;;;-4.00;100.00
56174;BME280;42058;52.308;20.924;2022-12-17T11:26:53;101296.75;;;-3.98;100.00
56174;BME280;42058;52.308;20.924;2022-12-17T11:29:39;101290.32;;;-3.98;100.00
56174;BME280;42058;52.308;20.924;2022-12-17T11:32:40;101286.80;;;-4.00;100.00
56174;BME280;42058;52.308;20.924;2022-12-17T11:35:36;101286.34;;;-4.01;100.00
56174;BME280;42058;52.308;20.924;2022-12-17T11:38:40;101294.85;;;-4.02;100.00
56174;BME280;42058;52.308;20.924;2022-12-17T11:48:00;101301.43;;;-3.99;100.00
56174;BME280;42058;52.308;20.924;2022-12-17T11:50:51;101319.88;;;-3.98;100.00
56174;BME280;42058;52.308;20.924;2022-12-17T11:53:57;101317.80;;;-3.97;100.00
56174;BME280;42058;52.308;20.924;2022-12-17T11:56:51;101320.04;;;-3.95;100.00
56174;BME280;42058;52.308;20.924;2022-12-17T11:59:44;101323.48;;;-3.95;100.00
56174;BME280;42058;52.308;20.924;2022-12-17T12:06:27;101323.55;;;-3.93;100.00
56174;BME280;42058;52.308;20.924;2022-12-17T12:09:21;101324.05;;;-3.92;100.00
56174;BME280;42058;52.308;20.924;2022-12-17T12:12:46;101331.69;;;-3.94;100.00
56174;BME280;42058;52.308;20.924;2022-12-17T12:15:46;101327.27;;;-3.96;100.00
56174;BME280;42058;52.308;20.924;2022-12-17T12:22:36;101346.24;;;-3.94;100.00
56174;BME280;42058;52.308;20.924;2022-12-17T12:28:42;101341.28;;;-3.99;100.00
56174;BME280;42058;52.308;20.924;2022-12-17T12:31:50;101342.07;;;-4.00;100.00
56174;BME280;42058;52.308;20.924;2022-12-17T12:34:37;101336.14;;;-3.99;100.00
56174;BME280;42058;52.308;20.924;2022-12-17T12:37:23;101338.71;;;-3.99;100.00
56174;BME280;42058;52.308;20.924;2022-12-17T12:40:20;101348.99;;;-3.99;100.00
56174;BME280;42058;52.308;20.924;2022-12-17T12:43:22;101355.42;;;-3.99;100.00
56174;BME280;42058;52.308;20.924;2022-12-17T12:46:15;101361.92;;;-3.98;100.00
56174;BME280;42058;52.308;20.924;2022-12-17T12:52:18;101366.31;;;-3.95;100.00
56174;BME280;42058;52.308;20.924;2022-12-17T12:55:09;101370.70;;;-3.93;100.00
56174;BME280;42058;52.308;20.924;2022-12-17T13:00:52;101375.13;;;-3.90;100.00
56174;BME280;42058;52.308;20.924;2022-12-17T13:06:53;101376.09;;;-3.88;100.00
56174;BME280;42058;52.308;20.924;2022-12-17T13:17:39;101378.55;;;-3.81;100.00
56174;BME280;42058;52.308;20.924;2022-12-17T13:20:28;101380.71;;;-3.81;100.00
56174;BME280;42058;52.308;20.924;2022-12-17T13:25:41;101379.77;;;-3.83;100.00
56174;BME280;42058;52.308;20.924;2022-12-17T13:28:28;101386.65;;;-3.82;100.00
56174;BME280;42058;52.308;20.924;2022-12-17T13:31:04;101396.06;;;-3.82;100.00
56174;BME280;42058;52.308;20.924;2022-12-17T13:33:43;101389.09;;;-3.85;100.00
56174;BME280;42058;52.308;20.924;2022-12-17T13:36:37;101389.89;;;-3.86;100.00
56174;BME280;42058;52.308;20.924;2022-12-17T13:41:51;101397.61;;;-3.86;100.00
56174;BME280;42058;52.308;20.924;2022-12-17T13:44:30;101400.67;;;-3.85;100.00
56174;BME280;42058;52.308;20.924;2022-12-17T13:46:57;101408.77;;;-3.86;100.00
56174;BME280;42058;52.308;20.924;2022-12-17T13:49:26;101406.45;;;-3.89;100.00
56174;BME280;42058;52.308;20.924;2022-12-17T13:52:05;101411.05;;;-3.92;100.00
56174;BME280;42058;52.308;20.924;2022-12-17T13:54:34;101411.05;;;-3.92;100.00
56174;BME280;42058;52.308;20.924;2022-12-17T13:57:17;101413.14;;;-3.93;100.00
56174;BME280;42058;52.308;20.924;2022-12-17T13:59:49;101410.52;;;-3.94;100.00
56174;BME280;42058;52.308;20.924;2022-12-17T14:02:28;101410.36;;;-3.97;100.00
56174;BME280;42058;52.308;20.924;2022-12-17T14:04:59;101419.13;;;-4.02;100.00
56174;BME280;42058;52.308;20.924;2022-12-17T14:07:27;101419.79;;;-4.06;100.00
56174;BME280;42058;52.308;20.924;2022-12-17T14:09:55;101420.53;;;-4.09;100.00
56174;BME280;42058;52.308;20.924;2022-12-17T14:12:23;101429.38;;;-4.12;100.00
56174;BME280;42058;52.308;20.924;2022-12-17T14:17:39;101437.88;;;-4.13;100.00
56174;BME280;42058;52.308;20.924;2022-12-17T14:23:02;101446.49;;;-4.12;100.00
56174;BME280;42058;52.308;20.924;2022-12-17T14:25:33;101451.14;;;-4.13;100.00
56174;BME280;42058;52.308;20.924;2022-12-17T14:28:18;101457.16;;;-4.13;100.00
56174;BME280;42058;52.308;20.924;2022-12-17T14:30:40;101463.20;;;-4.12;100.00
56174;BME280;42058;52.308;20.924;2022-12-17T14:33:27;101463.58;;;-4.13;100.00
56174;BME280;42058;52.308;20.924;2022-12-17T14:35:58;101472.03;;;-4.15;100.00
56174;BME280;42058;52.308;20.924;2022-12-17T14:38:26;101478.38;;;-4.17;100.00
56174;BME280;42058;52.308;20.924;2022-12-17T14:40:53;101474.84;;;-4.19;100.00
56174;BME280;42058;52.308;20.924;2022-12-17T14:43:25;101481.20;;;-4.20;100.00
56174;BME280;42058;52.308;20.924;2022-12-17T14:45:56;101486.75;;;-4.21;100.00
56174;BME280;42058;52.308;20.924;2022-12-17T14:48:42;101486.75;;;-4.21;100.00
56174;BME280;42058;52.308;20.924;2022-12-17T14:51:38;101484.97;;;-4.22;100.00
56174;BME280;42058;52.308;20.924;2022-12-17T14:56:57;101491.39;;;-4.22;100.00
56174;BME280;42058;52.308;20.924;2022-12-17T14:59:36;101486.03;;;-4.27;100.00
56174;BME280;42058;52.308;20.924;2022-12-17T15:04:38;101500.33;;;-4.32;100.00
56174;BME280;42058;52.308;20.924;2022-12-17T15:07:05;101498.97;;;-4.33;100.00
56174;BME280;42058;52.308;20.924;2022-12-17T15:09:36;101499.79;;;-4.34;100.00
56174;BME280;42058;52.308;20.924;2022-12-17T15:12:02;101499.21;;;-4.37;100.00
56174;BME280;42058;52.308;20.924;2022-12-17T15:14:29;101494.40;;;-4.39;100.00